createdAt,value
2022-08-21T00:01:58.848Z,21.71
2022-08-21T00:04:31.516Z,21.64
2022-08-21T00:07:14.379Z,21.55
2022-08-21T00:09:56.019Z,21.51
2022-08-21T00:12:48.363Z,21.50
2022-08-21T00:15:34.933Z,21.49
2022-08-21T00:18:29.674Z,21.44
2022-08-21T00:21:14.337Z,21.40
2022-08-21T00:23:46.820Z,21.37
2022-08-21T00:26:33.103Z,21.33
2022-08-21T00:29:28.920Z,21.25
2022-08-21T00:32:02.726Z,21.19
2022-08-21T00:34:42.204Z,21.16
2022-08-21T00:37:13.325Z,21.11
2022-08-21T00:40:05.951Z,21.05
2022-08-21T00:42:53.957Z,20.99
2022-08-21T00:45:29.110Z,20.95
2022-08-21T00:47:59.879Z,20.91
2022-08-21T00:51:11.443Z,20.87
2022-08-21T00:53:57.972Z,20.86
2022-08-21T00:56:32.513Z,20.86
2022-08-21T01:02:23.578Z,20.78
2022-08-21T01:05:16.661Z,20.76
2022-08-21T01:08:14.338Z,20.73
2022-08-21T01:11:14.659Z,20.67
2022-08-21T01:13:49.135Z,20.64
2022-08-21T01:16:30.568Z,20.61
2022-08-21T01:19:49.312Z,20.56
2022-08-21T01:22:24.834Z,20.54
2022-08-21T01:25:23.791Z,20.52
2022-08-21T01:28:20.032Z,20.50
2022-08-21T01:30:58.107Z,20.48
2022-08-21T01:33:41.040Z,20.44
2022-08-21T01:36:25.995Z,20.44
2022-08-21T01:39:16.758Z,20.38
2022-08-21T01:41:45.429Z,20.33
2022-08-21T01:44:25.206Z,20.31
2022-08-21T01:47:05.520Z,20.30
2022-08-21T01:49:37.273Z,20.25
2022-08-21T01:52:20.498Z,20.21
2022-08-21T01:54:55.697Z,20.18
2022-08-21T01:57:35.487Z,20.14
2022-08-21T02:00:11.752Z,20.15
2022-08-21T02:02:51.261Z,20.16
2022-08-21T02:05:30.158Z,20.15
2022-08-21T02:08:14.825Z,20.12
2022-08-21T02:10:49.210Z,20.11
2022-08-21T02:13:38.259Z,20.10
2022-08-21T02:16:36.913Z,20.10
2022-08-21T02:19:23.808Z,20.03
2022-08-21T02:22:05.843Z,19.95
2022-08-21T02:24:54.746Z,19.90
2022-08-21T02:27:39.736Z,19.82
2022-08-21T02:30:21.179Z,19.77
2022-08-21T02:33:05.081Z,19.72
2022-08-21T02:35:54.612Z,19.69
2022-08-21T02:38:44.121Z,19.64
2022-08-21T02:41:35.919Z,19.65
2022-08-21T02:44:08.933Z,19.66
2022-08-21T02:46:54.156Z,19.62
2022-08-21T02:49:46.551Z,19.57
2022-08-21T02:52:45.000Z,19.52
2022-08-21T02:55:51.733Z,19.47
2022-08-21T02:58:53.052Z,19.48
2022-08-21T03:01:44.582Z,19.46
2022-08-21T03:04:18.079Z,19.43
2022-08-21T03:07:00.685Z,19.44
2022-08-21T03:09:55.688Z,19.43
2022-08-21T03:12:45.954Z,19.40
2022-08-21T03:15:19.146Z,19.38
2022-08-21T03:17:51.911Z,19.38
2022-08-21T03:20:53.675Z,19.34
2022-08-21T03:23:32.458Z,19.30
2022-08-21T03:26:13.106Z,19.25
2022-08-21T03:29:11.118Z,19.21
2022-08-21T03:32:08.720Z,19.18
2022-08-21T03:35:06.657Z,19.20
2022-08-21T03:37:37.627Z,19.22
2022-08-21T03:40:17.027Z,19.24
2022-08-21T03:42:53.832Z,19.24
2022-08-21T03:45:48.452Z,19.22
2022-08-21T03:48:22.691Z,19.15
2022-08-21T03:51:06.484Z,19.14
2022-08-21T03:53:59.379Z,19.11
2022-08-21T03:56:30.082Z,19.10
2022-08-21T03:59:21.510Z,19.13
2022-08-21T04:01:58.495Z,19.14
2022-08-21T04:04:34.001Z,19.14
2022-08-21T04:07:16.791Z,19.14
2022-08-21T04:10:12.277Z,19.15
2022-08-21T04:12:55.499Z,19.15
2022-08-21T04:15:48.572Z,19.14
2022-08-21T04:18:46.397Z,19.11
2022-08-21T04:21:49.097Z,19.09
2022-08-21T04:27:31.982Z,19.14
2022-08-21T04:30:28.346Z,19.09
2022-08-21T04:33:39.707Z,19.02
2022-08-21T04:36:33.210Z,18.97
2022-08-21T04:39:10.117Z,18.91
2022-08-21T04:41:40.514Z,18.91
2022-08-21T04:44:55.501Z,18.91
2022-08-21T04:47:41.689Z,18.92
2022-08-21T04:50:26.571Z,18.91
2022-08-21T04:53:02.193Z,18.94
2022-08-21T04:56:05.916Z,18.96
2022-08-21T04:59:08.606Z,18.95
2022-08-21T05:01:47.655Z,19.01
2022-08-21T05:04:26.167Z,19.08
2022-08-21T05:07:41.926Z,19.20
2022-08-21T05:10:15.155Z,19.30
2022-08-21T05:13:17.280Z,19.35
2022-08-21T05:16:03.412Z,19.35
2022-08-21T05:18:58.441Z,19.38
2022-08-21T05:21:44.856Z,19.43
2022-08-21T05:24:32.937Z,19.50
2022-08-21T05:27:30.234Z,19.58
2022-08-21T05:30:07.622Z,19.68
2022-08-21T05:32:51.929Z,19.76
2022-08-21T05:35:32.865Z,19.87
2022-08-21T05:38:05.116Z,19.96
2022-08-21T05:40:44.579Z,20.05
2022-08-21T05:43:53.417Z,20.19
2022-08-21T05:46:49.840Z,20.23
2022-08-21T05:49:28.736Z,20.29
2022-08-21T05:52:14.246Z,20.36
2022-08-21T05:55:00.252Z,20.40
2022-08-21T05:57:39.701Z,20.44
2022-08-21T06:00:17.713Z,20.44
2022-08-21T06:03:24.060Z,20.46
2022-08-21T06:06:13.653Z,20.53
2022-08-21T06:09:01.220Z,20.65
2022-08-21T06:11:54.706Z,20.77
2022-08-21T06:14:59.237Z,20.84
2022-08-21T06:21:05.543Z,20.96
2022-08-21T06:24:07.764Z,21.03
2022-08-21T06:26:48.905Z,21.11
2022-08-21T06:29:44.188Z,21.19
2022-08-21T06:32:22.046Z,21.17
2022-08-21T06:38:23.960Z,21.20
2022-08-21T06:44:59.707Z,21.32
2022-08-21T06:47:59.998Z,21.30
2022-08-21T06:50:49.479Z,21.32
2022-08-21T06:53:31.006Z,21.38
2022-08-21T06:56:03.980Z,21.45
2022-08-21T06:59:10.646Z,21.59
2022-08-21T07:01:40.146Z,21.71
2022-08-21T07:04:38.137Z,21.72
2022-08-21T07:07:25.976Z,21.80
2022-08-21T07:10:23.522Z,21.90
2022-08-21T07:13:11.253Z,22.03
2022-08-21T07:15:49.074Z,22.13
2022-08-21T07:18:56.032Z,22.16
2022-08-21T07:21:57.462Z,22.25
2022-08-21T07:24:31.444Z,22.34
2022-08-21T07:30:30.112Z,22.41
2022-08-21T07:33:27.685Z,22.48
2022-08-21T07:36:06.807Z,22.63
2022-08-21T07:38:46.204Z,22.76
2022-08-21T07:41:43.464Z,22.84
2022-08-21T07:44:19.420Z,22.93
2022-08-21T07:47:01.036Z,22.97
2022-08-21T07:49:39.497Z,23.12
2022-08-21T07:52:11.118Z,23.23
2022-08-21T07:55:34.942Z,23.34
2022-08-21T07:58:15.838Z,23.43
2022-08-21T08:01:01.183Z,23.51
2022-08-21T08:03:47.717Z,23.59
2022-08-21T08:06:26.623Z,23.67
2022-08-21T08:09:28.598Z,23.76
2022-08-21T08:12:13.606Z,23.82
2022-08-21T08:14:54.659Z,23.91
2022-08-21T08:17:50.082Z,24.02
2022-08-21T08:20:42.468Z,24.01
2022-08-21T08:23:31.360Z,24.07
2022-08-21T08:26:26.449Z,24.24
2022-08-21T08:29:09.600Z,24.36
2022-08-21T08:32:18.313Z,24.51
2022-08-21T08:34:59.053Z,24.58
2022-08-21T08:37:46.677Z,24.66
2022-08-21T08:40:45.907Z,24.62
2022-08-21T08:43:18.731Z,24.62
2022-08-21T08:46:11.242Z,24.71
2022-08-21T08:49:01.368Z,24.67
2022-08-21T08:52:07.081Z,24.68
2022-08-21T08:54:56.709Z,24.74
2022-08-21T08:57:34.253Z,24.71
2022-08-21T09:00:11.853Z,24.85
2022-08-21T09:03:10.169Z,25.02
2022-08-21T09:05:59.573Z,25.08
2022-08-21T09:08:44.285Z,25.03
2022-08-21T09:11:32.128Z,25.00
2022-08-21T09:14:42.389Z,24.97
2022-08-21T09:17:56.689Z,25.14
2022-08-21T09:20:45.477Z,25.19
2022-08-21T09:23:47.972Z,25.15
2022-08-21T09:26:21.780Z,25.16
2022-08-21T09:29:03.346Z,25.16
2022-08-21T09:32:01.131Z,25.37
2022-08-21T09:34:56.175Z,25.64
2022-08-21T09:37:57.370Z,25.80
2022-08-21T09:40:55.352Z,25.87
2022-08-21T09:43:43.440Z,25.84
2022-08-21T09:46:43.267Z,25.98
2022-08-21T09:49:42.964Z,26.23
2022-08-21T09:52:29.258Z,26.42
2022-08-21T09:55:18.923Z,26.31
2022-08-21T09:58:11.433Z,26.19
2022-08-21T10:01:04.534Z,26.27
2022-08-21T10:03:43.469Z,26.33
2022-08-21T10:06:36.913Z,26.35
2022-08-21T10:09:38.260Z,26.42
2022-08-21T10:12:24.097Z,26.82
2022-08-21T10:15:32.325Z,27.43
2022-08-21T10:19:00.561Z,27.69
2022-08-21T10:22:13.059Z,27.27
2022-08-21T10:25:06.222Z,27.00
2022-08-21T10:28:05.141Z,26.76
2022-08-21T10:30:51.621Z,26.53
2022-08-21T10:33:43.824Z,26.40
2022-08-21T10:36:37.601Z,26.12
2022-08-21T10:39:35.047Z,26.00
2022-08-21T10:42:27.961Z,26.03
2022-08-21T10:45:06.308Z,25.89
2022-08-21T10:47:46.348Z,25.91
2022-08-21T10:50:53.382Z,26.22
2022-08-21T10:53:50.824Z,26.52
2022-08-21T10:56:29.410Z,26.56
2022-08-21T10:59:27.742Z,26.52
2022-08-21T11:02:24.120Z,26.61
2022-08-21T11:05:01.441Z,27.19
2022-08-21T11:08:03.763Z,27.77
2022-08-21T11:11:00.338Z,27.80
2022-08-21T11:14:00.821Z,27.66
2022-08-21T11:16:40.358Z,27.53
2022-08-21T11:19:35.028Z,27.57
2022-08-21T11:22:09.361Z,27.38
2022-08-21T11:24:46.045Z,27.19
2022-08-21T11:27:29.362Z,27.19
2022-08-21T11:30:24.526Z,27.28
2022-08-21T11:33:09.681Z,27.36
2022-08-21T11:35:49.310Z,27.47
2022-08-21T11:38:53.268Z,27.45
2022-08-21T11:41:44.071Z,27.69
2022-08-21T11:44:45.616Z,27.58
2022-08-21T11:47:29.592Z,27.54
2022-08-21T11:50:34.849Z,27.61
2022-08-21T11:53:15.652Z,27.51
2022-08-21T11:56:03.370Z,27.44
2022-08-21T11:58:59.104Z,27.17
2022-08-21T12:05:23.237Z,27.01
2022-08-21T12:08:16.516Z,27.47
2022-08-21T12:12:52.474Z,28.11
2022-08-21T12:15:38.777Z,28.80
2022-08-21T12:18:49.927Z,29.15
2022-08-21T12:21:39.808Z,29.35
2022-08-21T12:24:15.245Z,29.29
2022-08-21T12:27:32.476Z,29.56
2022-08-21T12:30:40.709Z,30.11
2022-08-21T12:33:49.707Z,29.86
2022-08-21T12:36:46.465Z,29.94
2022-08-21T12:39:43.634Z,30.36
2022-08-21T12:42:30.867Z,30.27
2022-08-21T12:45:48.526Z,29.96
2022-08-21T12:48:56.493Z,29.64
2022-08-21T12:51:30.787Z,29.77
2022-08-21T12:54:19.556Z,30.15
2022-08-21T12:57:04.680Z,30.22
2022-08-21T13:00:05.425Z,30.37
2022-08-21T13:02:48.513Z,30.14
2022-08-21T13:05:52.602Z,29.71
2022-08-21T13:08:40.800Z,28.87
2022-08-21T13:11:34.498Z,28.61
2022-08-21T13:14:40.825Z,28.44
2022-08-21T13:17:32.397Z,28.36
2022-08-21T13:20:27.895Z,28.30
2022-08-21T13:23:00.007Z,28.48
2022-08-21T13:25:31.971Z,28.93
2022-08-21T13:28:18.816Z,29.32
2022-08-21T13:31:14.892Z,29.77
2022-08-21T13:38:45.931Z,30.44
2022-08-21T13:41:30.351Z,30.06
2022-08-21T13:44:23.540Z,29.35
2022-08-21T13:47:14.785Z,28.85
2022-08-21T13:50:10.550Z,28.46
2022-08-21T13:52:58.252Z,28.30
2022-08-21T13:55:42.601Z,28.44
2022-08-21T13:58:53.526Z,28.20
2022-08-21T14:01:49.939Z,28.01
2022-08-21T14:04:32.092Z,27.88
2022-08-21T14:07:18.164Z,27.73
2022-08-21T14:09:57.581Z,27.45
2022-08-21T14:13:12.736Z,27.23
2022-08-21T14:15:46.636Z,27.08
2022-08-21T14:18:19.473Z,26.90
2022-08-21T14:20:50.696Z,26.87
2022-08-21T14:23:32.641Z,26.85
2022-08-21T14:26:10.302Z,26.78
2022-08-21T14:28:47.970Z,26.80
2022-08-21T14:31:31.162Z,27.12
2022-08-21T14:34:27.696Z,27.43
2022-08-21T14:37:12.152Z,27.71
2022-08-21T14:39:46.207Z,27.96
2022-08-21T14:42:36.670Z,28.25
2022-08-21T14:45:30.778Z,28.48
2022-08-21T14:48:21.218Z,28.54
2022-08-21T14:51:05.177Z,28.38
2022-08-21T14:53:35.723Z,28.18
2022-08-21T14:56:14.783Z,28.04
2022-08-21T14:58:54.243Z,27.83
2022-08-21T15:01:43.574Z,27.61
2022-08-21T15:04:42.448Z,27.58
2022-08-21T15:07:27.092Z,27.44
2022-08-21T15:09:56.877Z,27.34
2022-08-21T15:12:37.052Z,27.23
2022-08-21T15:15:18.424Z,27.27
2022-08-21T15:17:56.131Z,27.22
2022-08-21T15:20:38.955Z,27.11
2022-08-21T15:23:16.644Z,26.92
2022-08-21T15:26:01.272Z,26.86
2022-08-21T15:28:39.747Z,26.80
2022-08-21T15:31:20.178Z,26.73
2022-08-21T15:34:14.389Z,26.69
2022-08-21T15:37:00.148Z,26.60
2022-08-21T15:42:57.617Z,26.60
2022-08-21T15:45:41.881Z,26.49
2022-08-21T15:48:28.965Z,26.44
2022-08-21T15:51:23.321Z,26.39
2022-08-21T15:54:45.730Z,26.38
2022-08-21T16:01:44.159Z,26.17
2022-08-21T16:04:33.452Z,26.05
2022-08-21T16:07:16.873Z,25.93
2022-08-21T16:09:52.806Z,25.84
2022-08-21T16:12:33.421Z,25.78
2022-08-21T16:15:10.858Z,25.70
2022-08-21T16:17:55.000Z,25.46
2022-08-21T16:21:15.201Z,25.34
2022-08-21T16:24:08.009Z,25.29
2022-08-21T16:27:32.143Z,25.22
2022-08-21T16:30:21.079Z,25.10
2022-08-21T16:33:21.436Z,25.05
2022-08-21T16:35:59.068Z,25.00
2022-08-21T16:38:51.405Z,24.93
2022-08-21T16:42:09.800Z,24.84
2022-08-21T16:45:04.123Z,24.72
2022-08-21T16:47:54.513Z,24.69
2022-08-21T16:50:57.841Z,24.67
2022-08-21T16:53:44.372Z,24.59
2022-08-21T16:56:17.727Z,24.49
2022-08-21T16:59:41.460Z,24.37
2022-08-21T17:02:39.994Z,24.30
2022-08-21T17:05:31.645Z,24.24
2022-08-21T17:08:07.563Z,24.15
2022-08-21T17:10:49.279Z,24.06
2022-08-21T17:13:39.121Z,23.99
2022-08-21T17:17:00.544Z,23.94
2022-08-21T17:19:40.030Z,23.85
2022-08-21T17:22:27.530Z,23.78
2022-08-21T17:25:07.197Z,23.71
2022-08-21T17:27:50.656Z,23.66
2022-08-21T17:30:46.900Z,23.63
2022-08-21T17:33:37.909Z,23.61
2022-08-21T17:36:33.564Z,23.55
2022-08-21T17:39:22.235Z,23.47
2022-08-21T17:42:09.726Z,23.43
2022-08-21T17:45:02.355Z,23.37
2022-08-21T17:47:50.739Z,23.30
2022-08-21T17:50:32.130Z,23.26
2022-08-21T17:53:27.396Z,23.22
2022-08-21T17:56:16.586Z,23.16
2022-08-21T17:59:25.802Z,23.10
2022-08-21T18:02:09.952Z,23.05
2022-08-21T18:05:06.649Z,23.02
2022-08-21T18:08:18.631Z,22.99
2022-08-21T18:11:50.517Z,22.96
2022-08-21T18:14:34.406Z,22.95
2022-08-21T18:17:25.071Z,22.92
2022-08-21T18:20:20.913Z,22.87
2022-08-21T18:23:12.157Z,22.82
2022-08-21T18:26:05.930Z,22.79
2022-08-21T18:29:00.900Z,22.77
2022-08-21T18:31:45.432Z,22.75
2022-08-21T18:34:36.540Z,22.74
2022-08-21T18:37:30.559Z,22.71
2022-08-21T18:40:09.276Z,22.66
2022-08-21T18:43:11.050Z,22.63
2022-08-21T18:45:59.179Z,22.59
2022-08-21T18:49:03.089Z,22.55
2022-08-21T18:51:45.478Z,22.51
2022-08-21T18:54:42.769Z,22.48
2022-08-21T18:57:30.826Z,22.46
2022-08-21T19:00:27.642Z,22.45
2022-08-21T19:03:34.326Z,22.43
2022-08-21T19:06:05.455Z,22.39
2022-08-21T19:09:03.460Z,22.37
2022-08-21T19:11:49.220Z,22.34
2022-08-21T19:14:38.688Z,22.32
2022-08-21T19:21:59.914Z,22.23
2022-08-21T19:24:38.553Z,22.22
2022-08-21T19:27:23.490Z,22.22
2022-08-21T19:30:01.834Z,22.22
2022-08-21T19:32:54.493Z,22.20
2022-08-21T19:35:45.074Z,22.16
2022-08-21T19:38:46.310Z,22.14
2022-08-21T19:41:33.844Z,22.11
2022-08-21T19:44:32.464Z,22.04
2022-08-21T19:47:29.371Z,22.04
2022-08-21T19:50:33.622Z,22.06
2022-08-21T19:53:32.149Z,22.04
2022-08-21T19:56:25.089Z,22.03
2022-08-21T19:59:24.830Z,22.01
2022-08-21T20:02:15.106Z,21.99
2022-08-21T20:05:12.482Z,21.97
2022-08-21T20:07:43.334Z,21.95
2022-08-21T20:10:33.535Z,21.93
2022-08-21T20:13:23.399Z,21.93
2022-08-21T20:16:20.153Z,21.89
2022-08-21T20:18:58.231Z,21.85
2022-08-21T20:22:05.255Z,21.84
2022-08-21T20:24:58.894Z,21.83
2022-08-21T20:27:45.395Z,21.82
2022-08-21T20:30:22.727Z,21.78
2022-08-21T20:33:00.009Z,21.72
2022-08-21T20:35:53.335Z,21.69
2022-08-21T20:38:25.697Z,21.65
2022-08-21T20:41:21.521Z,21.63
2022-08-21T20:44:29.913Z,21.60
2022-08-21T20:47:06.550Z,21.57
2022-08-21T20:49:56.806Z,21.55
2022-08-21T20:52:48.736Z,21.50
2022-08-21T20:55:31.551Z,21.48
2022-08-21T20:58:17.961Z,21.45
2022-08-21T21:01:01.835Z,21.44
2022-08-21T21:03:46.048Z,21.43
2022-08-21T21:06:36.970Z,21.41
2022-08-21T21:12:51.283Z,21.31
2022-08-21T21:15:52.474Z,21.26
2022-08-21T21:18:44.595Z,21.20
2022-08-21T21:21:51.624Z,21.16
2022-08-21T21:24:37.414Z,21.12
2022-08-21T21:27:28.278Z,21.07
2022-08-21T21:30:26.123Z,21.00
2022-08-21T21:33:07.026Z,20.99
2022-08-21T21:35:52.466Z,20.96
2022-08-21T21:38:38.425Z,20.96
2022-08-21T21:45:17.966Z,20.86
2022-08-21T21:48:45.570Z,20.82
2022-08-21T21:59:29.751Z,20.66
2022-08-21T22:02:25.041Z,20.62
2022-08-21T22:05:14.929Z,20.61
2022-08-21T22:08:08.031Z,20.59
2022-08-21T22:11:08.799Z,20.57
2022-08-21T22:14:25.349Z,20.56
2022-08-21T22:17:27.737Z,20.54
2022-08-21T22:20:08.981Z,20.51
2022-08-21T22:23:17.155Z,20.48
2022-08-21T22:25:59.916Z,20.42
2022-08-21T22:28:42.580Z,20.38
2022-08-21T22:31:40.287Z,20.37
2022-08-21T22:34:35.908Z,20.35
2022-08-21T22:37:38.496Z,20.31
2022-08-21T22:40:11.930Z,20.30
2022-08-21T22:43:36.678Z,20.28
2022-08-21T22:46:27.955Z,20.26
2022-08-21T22:49:16.051Z,20.24
2022-08-21T22:52:08.272Z,20.21
2022-08-21T22:55:01.881Z,20.20
2022-08-21T22:58:20.625Z,20.19
2022-08-21T23:01:21.253Z,20.18
2022-08-21T23:04:27.700Z,20.16
2022-08-21T23:07:11.482Z,20.10
2022-08-21T23:10:00.402Z,20.06
2022-08-21T23:12:49.032Z,20.03
2022-08-21T23:15:42.175Z,20.03
2022-08-21T23:18:39.599Z,20.00
2022-08-21T23:21:56.068Z,19.96
2022-08-21T23:24:36.699Z,19.91
2022-08-21T23:27:42.154Z,19.89
2022-08-21T23:30:20.865Z,19.85
2022-08-21T23:33:34.453Z,19.81
2022-08-21T23:36:40.330Z,19.74
2022-08-21T23:39:43.670Z,19.71
2022-08-21T23:42:40.479Z,19.73
2022-08-21T23:52:52.730Z,19.70
2022-08-21T23:55:44.541Z,19.67
2022-08-21T23:58:43.426Z,19.64
